Flight Track Log - Related Links

Times and Time Zones

All times are in EDT time to prevent confusion due to time zone crossing. See the CTL17 flight status page for this flight to view local times or setup timezone preferences in your user account.

Time Position Orientation Groundspeed Altitude Reporting Facility
EDT Latitude Longitude Course Direction KTS MPH feet Rate Location/Type
Thu 04:51:00 PM 43.3619 -84.0057 160° South  Level Estimated
Thu 04:52:00 PM 43.3366 -83.9838 148° Southeast  Level FlightAware Approximate
Thu 04:53:00 PM 43.3080 -83.9718 160° South  Level Estimated
Thu 04:54:00 PM 43.2807 -83.9553 156° South  Level FlightAware Approximate
Thu 04:55:00 PM 43.2533 -83.9388 156° South  Level FlightAware Approximate
Thu 04:56:00 PM 43.2247 -83.9271 163° South  Level Estimated
Thu 04:57:00 PM 43.1965 -83.9134 161° South  Level FlightAware Approximate
Thu 04:57:55 PM 42.9822 -83.8044 160° South 166 191 5,000  Level Cleveland Center
Thu 04:58:00 PM 43.1683 -83.8997 161° South  Level FlightAware Approximate
Thu 04:58:31 PM 42.9553 -83.7917 161° South 168 193 5,100  Level Cleveland Center
Thu 04:59:00 PM 43.1401 -83.8861 161° South  Level FlightAware Approximate
Thu 04:59:38 PM 42.9100 -83.7753 165° South 165 190 5,000  Level Cleveland Center
Thu 05:00:00 PM 43.1115 -83.8746 160° South  Level Estimated
Thu 05:00:33 PM 42.8667 -83.7589 165° South 169 194 5,000  Level Cleveland Center
Thu 05:01:00 PM 43.0835 -83.8603 160° South  Level FlightAware Approximate
Thu 05:01:40 PM 42.8175 -83.7308 157° South 168 193 5,100  Level Cleveland Center
Thu 05:02:00 PM 43.0555 -83.8461 160° South  Level FlightAware Approximate
Thu 05:02:41 PM 42.7719 -83.7144 165° South 172 198 5,100  Level Cleveland Center
Thu 05:03:00 PM 43.0275 -83.8318 160° South  Level FlightAware Approximate
Thu 05:03:42 PM 42.7244 -83.6978 166° South 168 193 5,100  Level Cleveland Center
Thu 05:04:43 PM 42.6811 -83.6817 165° South 166 191 5,100 -49 Level Cleveland Center
Thu 05:05:44 PM 42.6317 -83.6650 166° South 173 199 5,000 -197 Descending Cleveland Center
Thu 05:06:45 PM 42.5864 -83.6403 158° South 182 209 4,700 -422 Descending Cleveland Center
Thu 05:07:52 PM 42.5372 -83.6042 152° Southeast 188 216 4,100 -541 Descending Cleveland Center
Thu 05:08:47 PM 42.4942 -83.5794 157° South 186 214 3,600 -382 Descending Cleveland Center
Thu 05:09:42 PM 42.4508 -83.5633 165° South 173 199 3,400 -261 Descending Cleveland Center
Thu 05:10:42 PM 42.4011 -83.5469 166° South 177 204 3,100 -313 Descending Cleveland Center
Thu 05:11:37 PM 42.3597 -83.5339 167° South 165 190 2,800 -466 Descending Cleveland Center
Thu 05:12:38 PM 42.3139 -83.5317 178° South 160 184 2,200 -590 Descending Cleveland Center
Thu 05:13:39 PM 42.2725 -83.5269 181° South 133 153 1,600 -590 Descending Cleveland Center
Thu 05:14:00 PM 42.2731 -83.5331 181° South  Level FlightAware Approximate
Thu 05:16:00 PM 42.2333 -83.5167 160° South  Level FlightAware Approximate
Thu 05:23:00 PM 42.2393 -83.5310 160° South  Level Estimated

Login

Don't have an account? Register now (free) for customized features, flight alerts, and more!